Time;durP1;ratioP1;P1;durP2;ratioP2;P2;SDS_P1;SDS_P2;PMS_P1;PMS_P2;Temp;Humidity;BMP_temperature;BMP_pressure;BME280_temperature;BME280_humidity;BME280_pressure;Samples;Min_cycle;Max_cycle;Signal;HPM_P1;HPM_P2
2021/11/05 00:01:25;;;;;;;47.53;44.33;;;;;;;5.68;100.00;102323.25;1914377;74;39453;-71
2021/11/05 00:06:49;;;;;;;45.97;42.77;;;;;;;5.63;100.00;102321.67;1903310;74;86029;-71
2021/11/05 00:12:14;;;;;;;47.30;44.07;;;;;;;5.52;100.00;102327.83;1916559;74;39522;-73
2021/11/05 00:17:38;;;;;;;47.47;44.20;;;;;;;5.63;100.00;102335.45;1901593;75;86623;-71
2021/11/05 00:23:04;;;;;;;46.93;43.83;;;;;;;5.32;100.00;102332.02;1916479;74;39716;-71
2021/11/05 00:28:27;;;;;;;46.00;43.00;;;;;;;5.46;100.00;102332.31;1913825;74;39560;-72
2021/11/05 00:33:54;;;;;;;48.10;45.00;;;;;;;5.44;100.00;102335.80;1825078;76;86572;-71
2021/11/05 00:39:18;;;;;;;46.90;43.80;;;;;;;5.36;100.00;102336.03;1878361;74;39526;-71
2021/11/05 00:44:42;;;;;;;47.20;44.10;;;;;;;5.41;100.00;102329.36;1901717;75;85583;-72
2021/11/05 00:50:09;;;;;;;48.40;44.93;;;;;;;5.35;100.00;102337.09;1874216;74;39712;-73
2021/11/05 00:55:34;;;;;;;48.50;45.30;;;;;;;5.19;100.00;102338.92;1884522;74;39739;-71
2021/11/05 01:00:58;;;;;;;49.37;46.03;;;;;;;5.08;100.00;102349.73;1813206;76;86357;-71
2021/11/05 01:06:22;;;;;;;48.87;45.57;;;;;;;4.99;100.00;102354.09;1914931;74;39796;-71
2021/11/05 01:11:46;;;;;;;47.67;44.13;;;;;;;5.00;100.00;102353.56;1890976;74;86550;-73
2021/11/05 01:17:10;;;;;;;49.10;45.70;;;;;;;4.93;100.00;102358.20;1881970;74;39621;-73
2021/11/05 01:22:35;;;;;;;47.70;44.27;;;;;;;5.00;100.00;102367.33;1823645;76;86125;-71
2021/11/05 01:27:58;;;;;;;48.67;45.23;;;;;;;4.84;100.00;102358.09;1777405;79;86396;-71
2021/11/05 01:33:23;;;;;;;51.30;47.20;;;;;;;4.85;100.00;102364.77;1914918;74;39583;-71
2021/11/05 01:38:47;;;;;;;49.90;46.37;;;;;;;4.69;100.00;102368.45;1904960;74;85430;-71
2021/11/05 01:44:12;;;;;;;50.53;46.83;;;;;;;4.69;100.00;102369.31;1916774;74;39915;-73
2021/11/05 01:49:37;;;;;;;50.57;46.77;;;;;;;4.63;100.00;102369.28;1901733;73;86084;-71
2021/11/05 01:55:03;;;;;;;48.93;45.23;;;;;;;4.71;100.00;102367.17;1919215;74;39704;-71
2021/11/05 02:00:29;;;;;;;50.47;46.73;;;;;;;4.58;100.00;102370.75;1914316;74;39414;-71
2021/11/05 02:05:54;;;;;;;47.93;44.43;;;;;;;4.66;100.00;102382.64;1784984;79;86000;-73
2021/11/05 02:11:21;;;;;;;50.10;46.37;;;;;;;4.70;100.00;102382.55;1915448;74;39434;-71
2021/11/05 02:16:49;;;;;;;49.07;45.37;;;;;;;4.69;100.00;102381.69;1892071;74;86546;-71
2021/11/05 02:22:15;;;;;;;49.20;45.60;;;;;;;4.76;100.00;102388.57;1915235;74;39707;-71
2021/11/05 02:27:39;;;;;;;49.90;46.07;;;;;;;4.59;100.00;102386.22;1901703;73;86470;-71
2021/11/05 02:33:06;;;;;;;49.67;46.07;;;;;;;4.55;100.00;102405.58;1918654;74;39726;-71
2021/11/05 02:38:30;;;;;;;48.90;45.50;;;;;;;4.48;100.00;102408.85;1885554;74;39462;-71
2021/11/05 02:43:55;;;;;;;51.10;47.53;;;;;;;4.63;100.00;102408.66;1777228;79;86617;-71
2021/11/05 02:49:19;;;;;;;51.80;47.93;;;;;;;4.44;100.00;102410.32;1915559;74;39483;-71
2021/11/05 02:54:45;;;;;;;50.63;46.63;;;;;;;4.46;100.00;102418.34;1903742;74;86412;-71
2021/11/05 03:00:12;;;;;;;51.53;47.77;;;;;;;4.37;100.00;102414.08;1917799;74;39447;-71
2021/11/05 03:05:36;;;;;;;52.60;48.47;;;;;;;4.25;100.00;102421.23;1901628;75;86543;-71
2021/11/05 03:11:01;;;;;;;53.30;49.30;;;;;;;4.14;100.00;102425.44;1901750;74;85659;-73
2021/11/05 03:16:25;;;;;;;51.90;47.67;;;;;;;4.15;100.00;102431.23;1914312;74;39676;-73
2021/11/05 03:21:49;;;;;;;53.13;49.13;;;;;;;4.22;100.00;102434.03;1904622;74;86228;-73
2021/11/05 03:27:12;;;;;;;52.33;48.43;;;;;;;4.10;100.00;102430.50;1880997;74;39584;-72
2021/11/05 03:32:38;;;;;;;50.93;47.23;;;;;;;4.28;100.00;102446.98;1901659;75;86174;-72
2021/11/05 03:38:04;;;;;;;53.47;49.47;;;;;;;4.25;100.00;102448.22;1918762;74;39697;-73
2021/11/05 03:43:29;;;;;;;52.03;48.10;;;;;;;4.10;100.00;102457.14;1913701;74;39604;-71
2021/11/05 03:48:54;;;;;;;53.47;49.30;;;;;;;4.19;100.00;102457.30;1822709;77;86594;-71
2021/11/05 03:54:19;;;;;;;51.70;47.83;;;;;;;4.18;100.00;102471.25;1915568;74;39700;-71
2021/11/05 03:59:43;;;;;;;53.77;49.57;;;;;;;4.04;100.00;102471.69;1915877;72;85544;-71
2021/11/05 04:05:08;;;;;;;52.90;48.97;;;;;;;4.05;100.00;102475.62;1918193;74;39631;-71
2021/11/05 04:10:32;;;;;;;55.40;51.30;;;;;;;4.13;100.00;102482.33;1866637;74;39560;-73
2021/11/05 04:15:57;;;;;;;53.40;49.23;;;;;;;4.22;100.00;102489.03;1902174;74;86203;-72
2021/11/05 04:21:40;;;;;;;52.87;48.50;;;;;;;4.06;100.00;102493.80;1863941;76;86030;-73
2021/11/05 04:27:05;;;;;;;56.33;51.73;;;;;;;4.00;100.00;102502.02;1918813;74;39781;-72
2021/11/05 04:32:29;;;;;;;56.13;51.83;;;;;;;4.20;100.00;102508.48;1913573;74;39538;-71
2021/11/05 04:37:53;;;;;;;57.53;52.67;;;;;;;3.94;100.00;102523.42;1779996;79;86463;-73
2021/11/05 04:43:17;;;;;;;54.97;50.43;;;;;;;3.82;100.00;102534.13;1878828;74;39798;-73
2021/11/05 04:48:41;;;;;;;56.27;51.57;;;;;;;4.02;100.00;102531.00;1901670;75;86690;-71
2021/11/05 04:54:06;;;;;;;56.70;52.00;;;;;;;3.94;100.00;102541.30;1918702;74;39505;-71
2021/11/05 04:59:30;;;;;;;55.50;51.13;;;;;;;4.02;100.00;102539.25;1913384;73;39577;-72
2021/11/05 05:05:15;;;;;;;54.63;50.20;;;;;;;3.84;100.00;102543.56;1843165;76;86536;-72
2021/11/05 05:10:40;;;;;;;56.77;52.10;;;;;;;3.99;100.00;102534.16;1901754;73;86099;-73
2021/11/05 05:16:05;;;;;;;55.70;50.93;;;;;;;3.89;100.00;102543.82;1918783;74;39629;-73
2021/11/05 05:21:30;;;;;;;56.97;52.27;;;;;;;3.71;100.00;102542.94;1913361;74;39599;-73
2021/11/05 05:26:52;;;;;;;56.20;51.57;;;;;;;3.66;100.00;102547.66;1947440;71;86406;-73
2021/11/05 05:32:17;;;;;;;56.13;51.43;;;;;;;3.54;100.00;102551.98;1879000;74;39636;-69
2021/11/05 05:37:41;;;;;;;55.90;51.10;;;;;;;3.65;100.00;102539.08;1901692;73;86170;-73
2021/11/05 05:43:07;;;;;;;55.77;51.00;;;;;;;3.64;100.00;102553.00;1918372;74;39578;-71
2021/11/05 05:48:35;;;;;;;55.23;50.47;;;;;;;3.68;100.00;102559.28;1913159;74;39511;-72
2021/11/05 05:53:59;;;;;;;54.13;49.57;;;;;;;3.72;100.00;102568.52;1793384;79;86686;-72
2021/11/05 05:59:24;;;;;;;56.70;51.80;;;;;;;3.80;100.00;102567.86;1914620;74;39551;-73
2021/11/05 06:04:48;;;;;;;56.73;52.03;;;;;;;3.55;100.00;102570.15;1891048;74;86004;-71
2021/11/05 06:10:19;;;;;;;54.80;50.23;;;;;;;3.60;100.00;102573.16;1878294;74;39751;-72
2021/11/05 06:15:44;;;;;;;56.77;51.93;;;;;;;3.88;100.00;102582.83;1905629;74;86387;-72
2021/11/05 06:21:08;;;;;;;54.50;49.77;;;;;;;3.72;100.00;102587.23;1883854;74;39587;-73
2021/11/05 06:26:31;;;;;;;54.83;50.07;;;;;;;3.65;100.00;102583.05;1867353;74;39695;-72
2021/11/05 06:31:55;;;;;;;56.27;51.67;;;;;;;3.52;100.00;102595.80;1782737;79;86790;-73
2021/11/05 06:37:19;;;;;;;56.27;51.77;;;;;;;3.61;100.00;102603.72;1877846;74;39518;-71
2021/11/05 06:42:44;;;;;;;54.57;50.00;;;;;;;3.33;100.00;102615.69;1907289;74;86552;-71
2021/11/05 06:48:09;;;;;;;54.80;50.17;;;;;;;3.08;100.00;102628.91;1918284;74;39593;-72
2021/11/05 06:53:33;;;;;;;53.03;48.50;;;;;;;2.91;100.00;102636.48;1912899;74;39644;-72
2021/11/05 06:59:00;;;;;;;53.13;48.70;;;;;;;2.77;100.00;102650.24;1902213;74;86821;-72
2021/11/05 07:04:24;;;;;;;52.67;48.17;;;;;;;2.95;100.00;102653.45;1914710;74;39469;-71
2021/11/05 07:09:48;;;;;;;54.13;49.87;;;;;;;3.46;100.00;102663.38;1891267;74;85412;-71
2021/11/05 07:15:13;;;;;;;54.27;49.67;;;;;;;2.88;100.00;102675.30;1870681;74;40420;-72
2021/11/05 07:20:38;;;;;;;55.50;50.77;;;;;;;2.73;100.00;102685.45;1901868;73;86383;-72
2021/11/05 07:26:06;;;;;;;54.00;49.23;;;;;;;2.60;100.00;102687.47;1901687;74;85992;-73
2021/11/05 07:31:31;;;;;;;53.27;48.53;;;;;;;2.61;100.00;102703.42;1913648;74;39481;-72
2021/11/05 07:36:56;;;;;;;52.07;47.40;;;;;;;2.98;100.00;102701.09;1943021;71;86617;-71
2021/11/05 07:42:27;;;;;;;53.30;48.57;;;;;;;2.85;100.00;102719.61;1886630;74;40320;-70
2021/11/05 07:47:53;;;;;;;54.30;49.40;;;;;;;2.81;100.00;102732.52;1836777;77;86840;-73
2021/11/05 07:53:17;;;;;;;54.40;49.70;;;;;;;2.94;100.00;102751.93;1915971;73;39874;-71
2021/11/05 07:58:41;;;;;;;55.73;50.53;;;;;;;2.92;100.00;102756.74;1901788;75;86789;-73
2021/11/05 08:04:11;;;;;;;53.57;48.57;;;;;;;3.13;100.00;102763.70;1917052;74;39533;-72
2021/11/05 08:09:36;;;;;;;53.90;48.93;;;;;;;3.20;100.00;102781.15;1901918;75;86387;-72
2021/11/05 08:15:01;;;;;;;52.37;47.40;;;;;;;3.36;100.00;102771.33;1889569;74;86501;-71
2021/11/05 08:20:25;;;;;;;52.47;47.83;;;;;;;3.55;100.00;102781.71;1914481;74;39773;-70
2021/11/05 08:25:52;;;;;;;52.17;47.67;;;;;;;3.78;100.00;102784.33;1890983;74;85527;-73
2021/11/05 08:31:18;;;;;;;51.67;47.37;;;;;;;4.16;100.00;102792.36;1915997;74;39546;-69
2021/11/05 08:36:40;;;;;;;50.40;46.30;;;;;;;4.10;100.00;102795.39;1901936;73;86499;-70
2021/11/05 08:42:07;;;;;;;46.87;43.07;;;;;;;4.66;100.00;102792.23;1918666;74;39530;-71
2021/11/05 08:47:31;;;;;;;49.13;45.00;;;;;;;4.80;100.00;102802.81;1913343;74;39624;-71
2021/11/05 08:52:55;;;;;;;48.87;44.97;;;;;;;4.70;100.00;102811.44;1785052;79;86455;-71
2021/11/05 08:58:20;;;;;;;49.07;45.33;;;;;;;4.91;100.00;102824.31;1915407;74;39660;-72
2021/11/05 09:03:44;;;;;;;48.97;45.23;;;;;;;5.00;100.00;102831.38;1903977;74;86250;-70
2021/11/05 09:09:08;;;;;;;50.23;46.43;;;;;;;4.98;100.00;102834.84;1918170;74;39704;-70
2021/11/05 09:14:33;;;;;;;45.80;42.47;;;;;;;5.16;100.00;102835.20;1913029;73;39486;-70
2021/11/05 09:19:58;;;;;;;47.87;44.17;;;;;;;5.29;100.00;102851.83;1835571;77;86458;-71
2021/11/05 09:25:23;;;;;;;48.93;44.93;;;;;;;5.44;100.00;102837.39;1915527;74;39654;-70
2021/11/05 09:30:47;;;;;;;46.13;42.60;;;;;;;5.53;100.00;102844.97;1905039;74;85506;-72
2021/11/05 09:36:11;;;;;;;45.07;41.83;;;;;;;5.71;100.00;102830.64;1917185;74;39630;-72
2021/11/05 09:41:36;;;;;;;46.87;43.40;;;;;;;5.89;100.00;102842.87;1902026;75;85971;-73
2021/11/05 09:47:02;;;;;;;45.97;42.67;;;;;;;6.03;100.00;102844.30;1885584;74;86653;-73
2021/11/05 09:52:27;;;;;;;46.17;42.80;;;;;;;6.18;100.00;102849.97;1914420;74;39624;-71
2021/11/05 09:57:53;;;;;;;42.60;39.60;;;;;;;6.45;100.00;102837.09;1772879;79;85416;-73
2021/11/05 10:03:19;;;;;;;40.10;37.30;;;;;;;6.79;100.00;102845.74;1878319;74;39680;-71
2021/11/05 10:08:52;;;;;;;43.80;40.63;;;;;;;7.07;100.00;102844.13;1904068;74;86356;-71
2021/11/05 10:14:21;;;;;;;39.73;37.03;;;;;;;6.88;100.00;102849.14;1878679;74;39640;-71
2021/11/05 10:19:57;;;;;;;39.23;36.47;;;;;;;7.02;100.00;102842.00;1825122;78;85677;-69
2021/11/05 10:25:41;;;;;;;43.17;40.47;;;;;;;7.25;100.00;102840.19;1901809;73;86301;-72
2021/11/05 10:33:55;;;;;;;41.13;38.53;;;;;;;7.05;100.00;102830.55;2010779;69;39411;-71
2021/11/05 10:36:27;;;;;;;41.42;38.58;;;;;;;7.06;100.00;102842.45;1879670;74;936539;-71
2021/11/05 10:39:01;;;;;;;38.10;35.47;;;;;;;7.27;100.00;102833.93;1870187;74;937033;-70
2021/11/05 10:41:33;;;;;;;41.87;38.97;;;;;;;7.44;100.00;102840.70;1868883;75;938688;-68
2021/11/05 10:47:11;;;;;;;41.83;39.10;;;;;;;7.66;100.00;102835.20;1918519;74;39720;-71
2021/11/05 10:52:35;;;;;;;43.20;40.30;;;;;;;7.46;100.00;102828.88;1823861;76;86468;-71
2021/11/05 10:58:03;;;;;;;33.60;31.60;;;;;;;7.89;100.00;102829.16;1885657;74;86344;-70
2021/11/05 11:03:33;;;;;;;37.23;34.77;;;;;;;8.02;100.00;102825.48;1913803;74;39812;-71
2021/11/05 11:09:03;;;;;;;36.47;34.23;;;;;;;7.99;100.00;102827.32;1901648;74;85904;-70
2021/11/05 11:14:35;;;;;;;33.40;31.30;;;;;;;8.08;100.00;102832.92;1913719;74;39588;-70
2021/11/05 11:19:59;;;;;;;32.47;30.57;;;;;;;7.90;100.00;102819.80;1782661;80;86879;-71
2021/11/05 11:25:23;;;;;;;32.33;30.43;;;;;;;8.23;100.00;102814.94;1876364;74;39615;-68
2021/11/05 11:30:48;;;;;;;29.33;27.53;;;;;;;8.33;100.00;102800.66;1903310;74;86856;-68
2021/11/05 11:36:15;;;;;;;27.80;25.90;;;;;;;8.60;100.00;102803.53;1916925;74;40183;-66
2021/11/05 11:41:41;;;;;;;24.93;23.53;;;;;;;8.78;100.00;102791.67;1901608;73;86872;-67
2021/11/05 11:47:10;;;;;;;28.43;26.93;;;;;;;8.68;100.00;102783.04;1917982;74;39777;-68
2021/11/05 11:52:44;;;;;;;22.37;21.20;;;;;;;9.06;100.00;102778.75;1903643;74;86636;-70
2021/11/05 11:58:15;;;;;;;19.10;18.20;;;;;;;9.22;100.00;102767.59;1871285;74;39410;-68
2021/11/05 12:07:04;;;;;;;19.23;18.23;;;;;;;9.51;100.00;102758.51;1864964;75;86087;-70
2021/11/05 12:09:38;;;;;;;19.07;18.17;;;;;;;9.51;100.00;102764.91;1834304;75;935413;-70
2021/11/05 12:12:31;;;;;;;20.50;19.50;;;;;;;9.56;100.00;102755.89;1846331;75;935740;-71
2021/11/05 12:18:29;;;;;;;19.33;18.43;;;;;;;9.41;100.00;102747.12;1913082;74;39807;-70
2021/11/05 12:24:28;;;;;;;18.93;18.03;;;;;;;9.76;100.00;102745.37;1888599;74;86423;-70
2021/11/05 12:30:12;;;;;;;19.70;18.80;;;;;;;9.61;100.00;102739.40;1902748;74;85853;-69
2021/11/05 12:35:40;;;;;;;17.03;16.17;;;;;;;9.88;100.00;102742.68;1901019;73;86346;-70
2021/11/05 12:41:06;;;;;;;17.77;16.97;;;;;;;9.89;100.00;102741.57;1918046;74;39575;-71
2021/11/05 12:46:49;;;;;;;20.43;19.50;;;;;;;10.14;100.00;102749.79;1935836;71;86436;-69
2021/11/05 12:52:15;;;;;;;19.63;18.63;;;;;;;10.15;100.00;102753.73;1915590;74;39605;-69
2021/11/05 12:57:46;;;;;;;20.00;19.00;;;;;;;9.94;100.00;102743.96;1900872;74;86222;-71
2021/11/05 13:03:12;;;;;;;18.93;17.87;;;;;;;10.09;100.00;102746.33;1916598;74;39679;-70
2021/11/05 13:08:46;;;;;;;17.43;16.63;;;;;;;10.25;100.00;102749.00;1891437;74;86225;-69
2021/11/05 13:14:10;;;;;;;18.17;17.33;;;;;;;10.19;100.00;102746.62;1916272;74;39610;-69
2021/11/05 13:19:35;;;;;;;19.60;18.70;;;;;;;10.12;100.00;102740.83;1871324;75;86433;-68
2021/11/05 13:25:21;;;;;;;16.77;15.93;;;;;;;10.03;100.00;102736.15;1862712;76;86786;-70
2021/11/05 13:30:57;;;;;;;17.63;16.67;;;;;;;10.39;100.00;102739.39;1937790;73;86231;-70
2021/11/05 13:36:24;;;;;;;18.63;17.60;;;;;;;10.56;100.00;102729.81;1876254;74;39582;-69
2021/11/05 13:41:49;;;;;;;20.63;19.63;;;;;;;10.60;100.00;102733.27;1903261;74;86310;-68
2021/11/05 13:47:19;;;;;;;21.70;20.60;;;;;;;10.70;100.00;102729.86;1880122;74;39677;-67
2021/11/05 13:53:01;;;;;;;21.23;20.17;;;;;;;10.62;100.00;102749.14;1950624;71;86543;-70
2021/11/05 13:58:30;;;;;;;24.37;22.50;;;;;;;10.80;100.00;102750.98;1913203;74;39816;-69
2021/11/05 14:03:58;;;;;;;23.07;21.97;;;;;;;10.75;100.00;102748.92;1751475;80;86334;-74
2021/11/05 14:09:24;;;;;;;23.90;22.50;;;;;;;10.77;100.00;102751.47;1914436;74;39499;-73
2021/11/05 14:14:51;;;;;;;26.60;25.10;;;;;;;10.61;100.00;102748.83;1904188;74;86055;-75
2021/11/05 14:20:17;;;;;;;25.33;23.90;;;;;;;10.75;100.00;102760.58;1915361;74;39806;-73
2021/11/05 14:25:40;;;;;;;27.27;25.80;;;;;;;10.75;100.00;102760.58;1900925;75;86294;-75
2021/11/05 14:31:04;;;;;;;26.77;25.33;;;;;;;10.68;100.00;102771.82;1918352;74;39820;-71
2021/11/05 14:36:28;;;;;;;27.97;26.37;;;;;;;10.65;100.00;102779.26;1913381;74;39847;-77
2021/11/05 14:41:53;;;;;;;31.17;29.47;;;;;;;10.70;100.00;102779.36;1763267;79;86645;-72
2021/11/05 14:47:20;;;;;;;35.10;33.10;;;;;;;10.64;100.00;102794.23;1914739;74;40307;-72
2021/11/05 14:52:50;;;;;;;33.30;31.40;;;;;;;10.74;100.00;102793.66;1903383;74;86223;-76
2021/11/05 14:58:17;;;;;;;37.30;35.00;;;;;;;10.68;100.00;102798.77;1889136;74;39707;-75
2021/11/05 15:03:44;;;;;;;42.13;39.57;;;;;;;10.69;100.00;102797.69;1900784;73;86353;-75
2021/11/05 15:09:13;;;;;;;46.70;43.83;;;;;;;10.52;100.00;102800.84;1871735;74;39632;-72
2021/11/05 15:14:38;;;;;;;46.63;43.90;;;;;;;10.47;100.00;102815.45;1901192;74;86151;-70
2021/11/05 15:20:04;;;;;;;49.30;46.20;;;;;;;10.44;100.00;102818.14;1918286;74;39737;-71
2021/11/05 15:25:28;;;;;;;51.27;47.87;;;;;;;10.39;100.00;102827.75;1913265;74;39503;-74
2021/11/05 15:30:55;;;;;;;52.63;48.97;;;;;;;10.25;100.00;102827.63;1784206;79;86432;-70
2021/11/05 15:36:21;;;;;;;54.10;50.40;;;;;;;10.17;100.00;102843.77;1876410;74;39602;-70
2021/11/05 15:41:45;;;;;;;53.40;49.70;;;;;;;10.12;100.00;102844.97;1904366;74;86481;-70
2021/11/05 15:47:10;;;;;;;54.03;50.10;;;;;;;10.13;100.00;102855.85;1890568;74;39479;-75
2021/11/05 15:52:34;;;;;;;58.55;54.35;;;;;;;10.07;100.00;102860.94;1896751;74;39449;-75
2021/11/05 15:58:00;;;;;;;57.47;53.17;;;;;;;10.19;100.00;102866.04;1784247;79;86618;-71
2021/11/05 16:03:27;;;;;;;55.77;51.53;;;;;;;10.06;100.00;102870.34;1913438;74;40429;-70
2021/11/05 16:08:51;;;;;;;56.83;52.53;;;;;;;10.06;100.00;102872.58;1823835;77;86136;-75
2021/11/05 16:14:16;;;;;;;58.97;54.23;;;;;;;10.19;100.00;102870.20;1888500;74;39524;-71
2021/11/05 16:19:45;;;;;;;53.20;49.43;;;;;;;10.08;100.00;102871.51;1935879;73;86541;-71
2021/11/05 16:25:09;;;;;;;54.93;50.97;;;;;;;10.00;100.00;102868.52;1917298;74;39633;-71
2021/11/05 16:30:34;;;;;;;53.90;50.13;;;;;;;9.97;100.00;102876.75;1912167;73;39529;-70
2021/11/05 16:36:00;;;;;;;55.30;51.40;;;;;;;10.11;100.00;102885.77;1943738;71;86243;-71
2021/11/05 16:41:24;;;;;;;54.70;50.80;;;;;;;9.87;100.00;102872.30;1914632;74;39470;-71
2021/11/05 16:47:09;;;;;;;52.97;49.17;;;;;;;9.80;100.00;102882.61;1885759;74;86419;-74
2021/11/05 16:52:32;;;;;;;54.00;50.10;;;;;;;9.85;100.00;102896.64;1913207;74;39442;-73
2021/11/05 16:57:56;;;;;;;52.73;48.73;;;;;;;9.75;100.00;102886.64;1903638;74;86599;-72
2021/11/05 17:03:20;;;;;;;54.70;50.60;;;;;;;9.72;100.00;102895.40;1872239;74;39648;-73
2021/11/05 17:08:46;;;;;;;52.30;48.33;;;;;;;9.86;100.00;102907.22;1892285;74;85534;-73
2021/11/05 17:14:10;;;;;;;53.03;48.87;;;;;;;9.98;100.00;102914.55;1917173;74;39682;-68
2021/11/05 17:19:37;;;;;;;53.10;48.93;;;;;;;9.96;100.00;102931.14;1872041;74;85792;-73
2021/11/05 17:25:00;;;;;;;56.97;52.30;;;;;;;9.92;100.00;102940.48;1782778;79;85674;-71
2021/11/05 17:30:25;;;;;;;57.00;52.30;;;;;;;9.83;100.00;102937.69;1914624;74;39713;-70
2021/11/05 17:35:51;;;;;;;57.07;52.67;;;;;;;9.69;100.00;102940.27;1904609;74;86016;-72
2021/11/05 17:41:18;;;;;;;55.13;50.63;;;;;;;9.70;100.00;102941.13;1879510;74;39567;-75
2021/11/05 17:46:43;;;;;;;58.93;54.40;;;;;;;9.73;100.00;102940.12;1901722;73;86735;-72
2021/11/05 17:52:07;;;;;;;59.10;54.27;;;;;;;9.71;100.00;102946.99;1918249;74;39549;-72
2021/11/05 17:57:32;;;;;;;58.50;53.93;;;;;;;9.81;100.00;102952.85;1913281;74;39829;-73
2021/11/05 18:03:04;;;;;;;64.67;59.37;;;;;;;9.86;100.00;102959.42;1802955;76;86391;-66
2021/11/05 18:08:30;;;;;;;68.53;62.73;;;;;;;9.91;100.00;102956.81;1913716;74;39514;-72
2021/11/05 18:13:54;;;;;;;66.87;60.93;;;;;;;9.90;100.00;102967.60;1954634;70;86366;-70
2021/11/05 18:19:38;;;;;;;66.63;61.03;;;;;;;9.86;100.00;102975.23;1873763;73;85407;-68
2021/11/05 18:25:01;;;;;;;62.37;57.47;;;;;;;9.95;100.00;102984.43;1901817;74;86732;-72
2021/11/05 18:30:27;;;;;;;61.80;56.90;;;;;;;9.91;100.00;102997.07;1914504;74;39669;-72
2021/11/05 18:35:52;;;;;;;62.87;57.73;;;;;;;9.84;100.00;102999.04;1860906;76;86170;-70
2021/11/05 18:41:18;;;;;;;59.80;54.70;;;;;;;9.74;100.00;102993.70;1915869;74;39737;-70
2021/11/05 18:46:46;;;;;;;62.80;57.57;;;;;;;9.68;100.00;102999.63;1901813;73;86222;-70
2021/11/05 18:52:11;;;;;;;95.63;86.40;;;;;;;9.75;100.00;103003.74;1917099;74;39630;-70
2021/11/05 18:57:35;;;;;;;62.57;57.27;;;;;;;9.88;100.00;102998.07;1872032;75;86436;-69
2021/11/05 19:03:02;;;;;;;58.40;53.47;;;;;;;10.07;100.00;103001.17;1903266;74;86360;-72
2021/11/05 19:08:29;;;;;;;59.70;54.80;;;;;;;10.09;100.00;103004.58;1914211;74;39572;-72
2021/11/05 19:13:54;;;;;;;59.17;54.23;;;;;;;10.09;100.00;102994.86;1954569;70;86387;-70
2021/11/05 19:19:18;;;;;;;62.47;56.93;;;;;;;10.12;100.00;103004.65;1915909;73;39648;-69
2021/11/05 19:24:47;;;;;;;63.07;57.77;;;;;;;10.00;100.00;103009.58;1936755;73;86222;-72
2021/11/05 19:30:18;;;;;;;61.90;56.60;;;;;;;9.93;100.00;103008.78;1915982;74;39620;-72
2021/11/05 19:35:44;;;;;;;89.73;80.30;;;;;;;9.93;100.00;103007.92;1904202;74;86432;-80
2021/11/05 19:41:12;;;;;;;207.13;186.53;;;;;;;9.91;100.00;103010.95;1918291;74;39803;-70
2021/11/05 19:46:40;;;;;;;89.63;80.63;;;;;;;9.92;100.00;103006.25;1902766;73;85526;-69
2021/11/05 19:52:08;;;;;;;75.77;68.70;;;;;;;10.00;100.00;103002.64;1919699;74;39830;-70
2021/11/05 19:57:36;;;;;;;72.60;66.13;;;;;;;9.96;100.00;102997.77;1913600;74;39775;-69
2021/11/05 20:03:05;;;;;;;80.10;72.67;;;;;;;9.94;100.00;102999.91;1919574;74;39533;-67
2021/11/05 20:08:34;;;;;;;89.13;81.23;;;;;;;9.88;100.00;102993.34;1914188;74;39796;-67
2021/11/05 20:14:03;;;;;;;94.43;85.93;;;;;;;9.87;100.00;102989.42;1903451;74;86900;-68
2021/11/05 20:19:27;;;;;;;100.10;91.03;;;;;;;9.96;100.00;103000.02;1914220;74;39392;-67
2021/11/05 20:24:50;;;;;;;99.03;89.87;;;;;;;9.90;100.00;102998.14;1903564;74;86675;-70
2021/11/05 20:30:16;;;;;;;113.27;102.57;;;;;;;9.92;100.00;102996.53;1916652;74;39508;-71
2021/11/05 20:35:41;;;;;;;109.47;99.17;;;;;;;9.98;100.00;102995.06;1902090;73;85845;-68
2021/11/05 20:41:06;;;;;;;98.50;89.17;;;;;;;10.06;100.00;102998.93;1919039;74;39616;-72
2021/11/05 20:46:30;;;;;;;93.97;85.00;;;;;;;10.11;100.00;103001.02;1914122;74;40437;-71
2021/11/05 20:51:55;;;;;;;86.30;78.90;;;;;;;10.14;100.00;102996.39;1862376;76;86940;-68
2021/11/05 20:57:20;;;;;;;95.30;86.43;;;;;;;10.17;100.00;102993.20;1915828;73;39453;-69
2021/11/05 21:02:44;;;;;;;86.60;78.67;;;;;;;10.02;100.00;103000.47;1904487;74;86155;-72
2021/11/05 21:08:09;;;;;;;85.23;77.70;;;;;;;10.06;100.00;103003.09;1918518;74;39413;-71
2021/11/05 21:13:35;;;;;;;83.33;76.33;;;;;;;10.05;100.00;103006.13;1871406;74;39774;-69
2021/11/05 21:18:59;;;;;;;83.63;76.53;;;;;;;10.04;100.00;103008.58;1785518;79;85645;-70
2021/11/05 21:24:23;;;;;;;85.27;78.07;;;;;;;10.05;100.00;103007.52;1915110;74;39810;-70
2021/11/05 21:29:48;;;;;;;82.60;75.63;;;;;;;9.86;100.00;103012.70;1891316;74;86856;-68
2021/11/05 21:35:14;;;;;;;77.37;70.57;;;;;;;9.87;100.00;103013.88;1917259;74;39628;-70
2021/11/05 21:40:39;;;;;;;72.20;65.50;;;;;;;9.96;100.00;103016.67;1901848;75;86922;-69
2021/11/05 21:46:05;;;;;;;76.20;69.80;;;;;;;10.01;100.00;103020.98;1893152;74;39697;-71
2021/11/05 21:51:30;;;;;;;72.80;66.40;;;;;;;10.09;100.00;103020.39;1953709;72;39508;-68
2021/11/05 21:56:54;;;;;;;77.00;70.53;;;;;;;10.17;100.00;103022.90;1947589;71;86949;-70
2021/11/05 22:02:19;;;;;;;74.53;68.07;;;;;;;10.20;100.00;103019.66;1916068;74;39650;-71
2021/11/05 22:07:45;;;;;;;76.07;69.27;;;;;;;10.22;100.00;103016.13;1893737;74;85342;-70
2021/11/05 22:13:10;;;;;;;72.00;65.77;;;;;;;10.18;100.00;103016.28;1917775;74;39647;-71
2021/11/05 22:18:34;;;;;;;72.77;66.93;;;;;;;10.23;100.00;103016.41;1912776;74;39779;-72
2021/11/05 22:24:02;;;;;;;68.77;63.00;;;;;;;10.16;100.00;103015.64;1794588;79;86836;-71
2021/11/05 22:29:25;;;;;;;68.77;62.97;;;;;;;10.07;100.00;103023.39;1914678;74;39646;-68
2021/11/05 22:35:11;;;;;;;63.43;57.67;;;;;;;10.19;100.00;103015.17;1882522;74;86712;-71
2021/11/05 22:40:37;;;;;;;71.00;65.23;;;;;;;10.23;100.00;103011.70;1902290;75;85798;-71
2021/11/05 22:46:03;;;;;;;65.73;60.23;;;;;;;10.09;100.00;103012.91;1919406;74;39486;-68
2021/11/05 22:51:29;;;;;;;66.80;61.13;;;;;;;10.22;100.00;103018.36;1914526;74;39640;-71
2021/11/05 22:56:53;;;;;;;66.13;60.53;;;;;;;10.13;100.00;103022.48;1947913;71;85144;-70
2021/11/05 23:02:37;;;;;;;64.00;58.33;;;;;;;10.00;100.00;103026.24;1880038;74;86652;-69
2021/11/05 23:08:07;;;;;;;63.80;58.20;;;;;;;10.10;100.00;103021.53;1901604;74;86663;-70
2021/11/05 23:13:29;;;;;;;63.53;57.77;;;;;;;10.04;100.00;103033.04;1913804;74;39636;-69
2021/11/05 23:18:55;;;;;;;63.80;57.80;;;;;;;9.98;100.00;103029.77;1811244;77;85347;-70
2021/11/05 23:24:17;;;;;;;63.90;58.67;;;;;;;10.00;100.00;103027.63;1916112;74;39636;-69
2021/11/05 23:29:42;;;;;;;64.63;59.00;;;;;;;9.98;100.00;103027.53;1901931;73;86376;-69
2021/11/05 23:35:08;;;;;;;67.60;61.97;;;;;;;9.93;100.00;103013.48;1918785;74;39588;-70
2021/11/05 23:40:33;;;;;;;65.40;59.80;;;;;;;9.84;100.00;103022.63;1913205;74;40407;-69
2021/11/05 23:45:58;;;;;;;65.43;59.37;;;;;;;9.77;100.00;103017.69;1902483;74;85784;-70
2021/11/05 23:51:23;;;;;;;62.87;57.17;;;;;;;9.69;100.00;103018.52;1915218;74;39419;-69
2021/11/05 23:56:48;;;;;;;64.10;58.73;;;;;;;9.63;100.00;103020.83;1903746;74;86239;-70
